Time;durP1;ratioP1;P1;durP2;ratioP2;P2;SDS_P1;SDS_P2;PMS_P1;PMS_P2;Temp;Humidity;BMP_temperature;BMP_pressure;BME280_temperature;BME280_humidity;BME280_pressure;Samples;Min_cycle;Max_cycle;Signal;HPM_P1;HPM_P2
2023/12/28 00:01:22;;;;;;;5.50;2.75;;;;;;;;;;5001744;28;20030;-72
2023/12/28 00:03:47;;;;;;;6.50;2.90;;;;;;;;;;5002022;28;20671;-74
2023/12/28 00:06:13;;;;;;;4.57;2.45;;;;;;;;;;5000827;28;20072;-73
2023/12/28 00:08:39;;;;;;;5.78;3.17;;;;;;;;;;5003308;28;20076;-73
2023/12/28 00:11:04;;;;;;;6.07;2.92;;;;;;;;;;5000052;28;20034;-73
2023/12/28 00:13:30;;;;;;;5.22;2.70;;;;;;;;;;5002488;28;20049;-73
2023/12/28 00:15:55;;;;;;;5.85;2.95;;;;;;;;;;5000484;28;20033;-73
2023/12/28 00:18:20;;;;;;;6.55;2.75;;;;;;;;;;5001891;28;20056;-73
2023/12/28 00:20:46;;;;;;;7.10;3.10;;;;;;;;;;5000988;28;20025;-73
2023/12/28 00:23:11;;;;;;;4.63;2.80;;;;;;;;;;5001745;28;20073;-73
2023/12/28 00:25:36;;;;;;;4.20;2.58;;;;;;;;;;5000636;28;20064;-73
2023/12/28 00:28:02;;;;;;;5.90;3.35;;;;;;;;;;5002214;28;20127;-73
2023/12/28 00:30:27;;;;;;;6.03;3.40;;;;;;;;;;5000900;28;20111;-73
2023/12/28 00:32:53;;;;;;;7.65;3.35;;;;;;;;;;5001177;28;20022;-73
2023/12/28 00:35:19;;;;;;;5.68;2.95;;;;;;;;;;5001943;28;20042;-73
2023/12/28 00:37:44;;;;;;;5.22;3.20;;;;;;;;;;5003141;28;20042;-73
2023/12/28 00:40:10;;;;;;;6.85;3.17;;;;;;;;;;5005847;28;20056;-73
2023/12/28 00:42:35;;;;;;;6.43;3.03;;;;;;;;;;5005389;28;20038;-73
2023/12/28 00:45:01;;;;;;;7.25;3.25;;;;;;;;;;5005913;28;20087;-73
2023/12/28 00:47:26;;;;;;;8.13;3.20;;;;;;;;;;5005584;28;20120;-73
2023/12/28 00:49:51;;;;;;;5.13;3.03;;;;;;;;;;5005848;28;20048;-74
2023/12/28 00:52:17;;;;;;;4.63;2.88;;;;;;;;;;5006671;28;20485;-74
2023/12/28 00:54:42;;;;;;;6.80;3.13;;;;;;;;;;5009320;28;20034;-74
2023/12/28 00:57:07;;;;;;;5.88;3.15;;;;;;;;;;5015293;28;20026;-73
2023/12/28 00:59:33;;;;;;;10.88;3.53;;;;;;;;;;5027146;28;20037;-73
2023/12/28 01:01:58;;;;;;;9.05;3.40;;;;;;;;;;5024784;28;20137;-74
2023/12/28 01:04:24;;;;;;;6.00;3.30;;;;;;;;;;5023656;28;20041;-73
2023/12/28 01:06:49;;;;;;;6.28;3.08;;;;;;;;;;5023131;28;20046;-73
2023/12/28 01:09:15;;;;;;;5.30;3.17;;;;;;;;;;5022758;28;20025;-74
2023/12/28 01:11:40;;;;;;;7.20;2.90;;;;;;;;;;5024208;28;20120;-74
2023/12/28 01:14:06;;;;;;;6.35;2.85;;;;;;;;;;5023276;28;20084;-73
2023/12/28 01:16:31;;;;;;;6.18;3.28;;;;;;;;;;4997121;28;20096;-74
2023/12/28 01:18:56;;;;;;;4.38;2.95;;;;;;;;;;4985503;28;20145;-74
2023/12/28 01:21:22;;;;;;;5.82;3.03;;;;;;;;;;4993597;28;20073;-74
2023/12/28 01:23:47;;;;;;;5.25;2.50;;;;;;;;;;5004263;28;20080;-73
2023/12/28 01:26:17;;;;;;;6.60;3.35;;;;;;;;;;4995263;28;20121;-73
2023/12/28 01:28:42;;;;;;;5.68;3.05;;;;;;;;;;5004779;28;20831;-73
2023/12/28 01:31:08;;;;;;;4.22;2.83;;;;;;;;;;5003510;28;20128;-74
2023/12/28 01:33:33;;;;;;;5.07;2.83;;;;;;;;;;5001371;28;20514;-73
2023/12/28 01:35:59;;;;;;;6.53;3.10;;;;;;;;;;5001219;28;20025;-73
2023/12/28 01:38:24;;;;;;;10.25;3.17;;;;;;;;;;5003499;28;20423;-73
2023/12/28 01:40:50;;;;;;;6.03;3.03;;;;;;;;;;5002644;28;20048;-72
2023/12/28 01:43:15;;;;;;;6.53;3.10;;;;;;;;;;5004996;28;20038;-74
2023/12/28 01:45:40;;;;;;;5.80;2.78;;;;;;;;;;5004033;28;20030;-72
2023/12/28 01:48:06;;;;;;;4.68;2.83;;;;;;;;;;5004427;28;20444;-72
2023/12/28 01:50:32;;;;;;;4.60;2.60;;;;;;;;;;4999655;28;20121;-73
2023/12/28 01:53:00;;;;;;;6.00;2.63;;;;;;;;;;4998901;28;20128;-73
2023/12/28 01:55:26;;;;;;;5.90;2.67;;;;;;;;;;5003956;28;20037;-73
2023/12/28 01:57:51;;;;;;;4.10;2.33;;;;;;;;;;5003826;28;20041;-73
2023/12/28 02:00:17;;;;;;;5.72;2.47;;;;;;;;;;5004221;28;20030;-73
2023/12/28 02:02:43;;;;;;;9.32;3.47;;;;;;;;;;5004414;28;20030;-73
2023/12/28 02:05:11;;;;;;;9.55;3.33;;;;;;;;;;5003829;28;20204;-73
2023/12/28 02:07:36;;;;;;;5.88;2.80;;;;;;;;;;5004451;28;20037;-73
2023/12/28 02:10:02;;;;;;;5.85;2.75;;;;;;;;;;5004568;28;20042;-73
2023/12/28 02:12:27;;;;;;;5.40;2.67;;;;;;;;;;5004231;28;20103;-73
2023/12/28 02:14:53;;;;;;;5.43;2.90;;;;;;;;;;5011687;28;20022;-73
2023/12/28 02:17:57;;;;;;;5.20;2.72;;;;;;;;;;5012153;28;20034;-73
2023/12/28 02:20:24;;;;;;;6.30;2.97;;;;;;;;;;4981319;28;20977;-73
2023/12/28 02:22:50;;;;;;;5.85;2.65;;;;;;;;;;5003327;28;20048;-73
2023/12/28 02:25:15;;;;;;;9.40;3.38;;;;;;;;;;5002153;28;20053;-73
2023/12/28 02:27:43;;;;;;;6.13;3.03;;;;;;;;;;5003696;28;20058;-73
2023/12/28 02:30:10;;;;;;;6.65;2.45;;;;;;;;;;4990498;28;20054;-73
2023/12/28 02:32:42;;;;;;;6.25;2.55;;;;;;;;;;4982357;28;20420;-73
2023/12/28 02:35:21;;;;;;;5.20;2.70;;;;;;;;;;4984504;28;20050;-73
2023/12/28 02:37:54;;;;;;;7.07;2.88;;;;;;;;;;4982300;28;20046;-73
2023/12/28 02:40:22;;;;;;;8.07;2.85;;;;;;;;;;4983757;28;20070;-72
2023/12/28 02:42:47;;;;;;;10.20;2.90;;;;;;;;;;4983412;28;20042;-72
2023/12/28 02:45:13;;;;;;;4.63;2.60;;;;;;;;;;4983095;28;20112;-73
2023/12/28 02:47:38;;;;;;;6.13;2.65;;;;;;;;;;4984358;28;20562;-73
2023/12/28 02:50:04;;;;;;;5.10;2.40;;;;;;;;;;4983711;28;20041;-73
2023/12/28 02:52:30;;;;;;;6.57;2.90;;;;;;;;;;4982638;28;20133;-73
2023/12/28 02:54:55;;;;;;;7.35;3.08;;;;;;;;;;4982050;28;20125;-73
2023/12/28 02:57:21;;;;;;;5.95;2.58;;;;;;;;;;4985502;28;20034;-73
2023/12/28 02:59:46;;;;;;;6.57;2.50;;;;;;;;;;5001185;28;20022;-72
2023/12/28 03:02:11;;;;;;;3.90;2.70;;;;;;;;;;5001472;28;20125;-73
2023/12/28 03:04:37;;;;;;;4.43;2.40;;;;;;;;;;5001454;28;20419;-74
2023/12/28 03:07:02;;;;;;;5.97;2.95;;;;;;;;;;5002555;28;20045;-73
2023/12/28 03:09:28;;;;;;;7.63;3.03;;;;;;;;;;5000287;28;20563;-73
2023/12/28 03:11:53;;;;;;;7.40;2.60;;;;;;;;;;5001963;28;20053;-73
2023/12/28 03:14:21;;;;;;;5.43;2.63;;;;;;;;;;5002577;28;20048;-73
2023/12/28 03:16:46;;;;;;;7.22;2.25;;;;;;;;;;5002667;28;20029;-73
2023/12/28 03:19:11;;;;;;;7.32;2.45;;;;;;;;;;5003021;28;20036;-73
2023/12/28 03:21:40;;;;;;;5.20;2.15;;;;;;;;;;5000635;28;20523;-73
2023/12/28 03:24:06;;;;;;;7.45;2.33;;;;;;;;;;5002015;28;20758;-73
2023/12/28 03:26:31;;;;;;;4.70;2.47;;;;;;;;;;5002435;28;20049;-73
2023/12/28 03:28:56;;;;;;;8.95;2.60;;;;;;;;;;5001165;28;20529;-73
2023/12/28 03:31:23;;;;;;;6.05;2.65;;;;;;;;;;5001702;28;20053;-73
2023/12/28 03:33:48;;;;;;;9.40;2.70;;;;;;;;;;5006324;28;20046;-73
2023/12/28 03:36:20;;;;;;;4.85;2.10;;;;;;;;;;5012684;28;20460;-73
2023/12/28 03:38:45;;;;;;;3.60;2.17;;;;;;;;;;5004572;28;20026;-73
2023/12/28 03:41:18;;;;;;;5.53;2.47;;;;;;;;;;5001681;28;20045;-73
2023/12/28 03:43:44;;;;;;;4.13;2.00;;;;;;;;;;5002383;28;20038;-73
2023/12/28 03:46:09;;;;;;;4.38;2.33;;;;;;;;;;5002723;28;20683;-73
2023/12/28 03:48:36;;;;;;;5.72;2.22;;;;;;;;;;5000540;28;20646;-73
2023/12/28 03:51:01;;;;;;;6.15;1.50;;;;;;;;;;5002680;28;20034;-73
2023/12/28 03:53:26;;;;;;;5.57;2.03;;;;;;;;;;5000948;28;20052;-73
2023/12/28 03:55:52;;;;;;;5.38;1.88;;;;;;;;;;5002008;28;20575;-73
2023/12/28 03:58:17;;;;;;;6.65;2.10;;;;;;;;;;5000815;28;20061;-73
2023/12/28 04:00:42;;;;;;;8.43;2.33;;;;;;;;;;5000698;28;20060;-74
2023/12/28 04:03:08;;;;;;;6.57;1.88;;;;;;;;;;5000097;28;20076;-74
2023/12/28 04:05:33;;;;;;;6.68;2.17;;;;;;;;;;5003012;28;20498;-73
2023/12/28 04:08:00;;;;;;;8.35;2.20;;;;;;;;;;5000299;28;20064;-73
2023/12/28 04:10:31;;;;;;;6.88;1.90;;;;;;;;;;5000539;28;20120;-73
2023/12/28 04:12:57;;;;;;;5.03;1.92;;;;;;;;;;5004566;28;20061;-72
2023/12/28 04:15:23;;;;;;;7.13;2.20;;;;;;;;;;5004596;28;20026;-73
2023/12/28 04:17:49;;;;;;;4.38;1.67;;;;;;;;;;5004271;28;20030;-73
2023/12/28 04:20:14;;;;;;;4.45;2.15;;;;;;;;;;5006178;28;20041;-73
2023/12/28 04:22:40;;;;;;;8.77;2.20;;;;;;;;;;5005470;28;20041;-73
2023/12/28 04:25:06;;;;;;;5.82;1.75;;;;;;;;;;5004318;28;20087;-73
2023/12/28 04:27:32;;;;;;;4.25;1.95;;;;;;;;;;5004588;28;20061;-73
2023/12/28 04:29:57;;;;;;;5.35;1.90;;;;;;;;;;5004349;28;20049;-73
2023/12/28 04:32:23;;;;;;;5.82;2.10;;;;;;;;;;5004721;28;20042;-73
2023/12/28 04:34:49;;;;;;;7.03;2.47;;;;;;;;;;5005787;28;20046;-73
2023/12/28 04:37:14;;;;;;;6.60;1.75;;;;;;;;;;5004244;28;20094;-73
2023/12/28 04:39:40;;;;;;;9.00;2.03;;;;;;;;;;5005490;28;20038;-73
2023/12/28 04:42:05;;;;;;;5.78;1.60;;;;;;;;;;5004639;28;20404;-73
2023/12/28 04:44:31;;;;;;;5.03;1.92;;;;;;;;;;5004191;28;20516;-73
2023/12/28 04:46:56;;;;;;;9.45;2.08;;;;;;;;;;5005725;28;20045;-73
2023/12/28 04:49:21;;;;;;;14.88;2.05;;;;;;;;;;5006189;28;20037;-72
2023/12/28 04:51:47;;;;;;;11.07;2.10;;;;;;;;;;5007500;28;20043;-73
2023/12/28 04:54:12;;;;;;;5.68;1.83;;;;;;;;;;5011598;28;20464;-74
2023/12/28 04:56:37;;;;;;;6.38;2.00;;;;;;;;;;5016237;28;20025;-73
2023/12/28 04:59:03;;;;;;;9.70;2.13;;;;;;;;;;5012087;28;20641;-73
2023/12/28 05:01:31;;;;;;;5.65;1.98;;;;;;;;;;5006787;28;20129;-73
2023/12/28 05:03:57;;;;;;;4.25;1.50;;;;;;;;;;5005863;28;20060;-73
2023/12/28 05:06:22;;;;;;;5.35;1.67;;;;;;;;;;5005506;28;20395;-73
2023/12/28 05:08:47;;;;;;;5.07;1.67;;;;;;;;;;5005579;28;20097;-74
2023/12/28 05:11:13;;;;;;;5.95;1.58;;;;;;;;;;5002673;28;20046;-73
2023/12/28 05:13:38;;;;;;;6.68;1.77;;;;;;;;;;5005040;28;20041;-74
2023/12/28 05:16:04;;;;;;;6.50;1.80;;;;;;;;;;5004820;28;20458;-74
2023/12/28 05:18:29;;;;;;;8.13;1.70;;;;;;;;;;5004723;28;20041;-73
2023/12/28 05:20:55;;;;;;;6.00;1.63;;;;;;;;;;5005010;28;20133;-73
2023/12/28 05:23:20;;;;;;;5.85;1.67;;;;;;;;;;5004393;28;20044;-73
2023/12/28 05:25:46;;;;;;;4.20;1.50;;;;;;;;;;5004324;28;20121;-73
2023/12/28 05:28:11;;;;;;;6.47;1.92;;;;;;;;;;5004458;28;20076;-74
2023/12/28 05:30:37;;;;;;;8.07;1.92;;;;;;;;;;5003564;28;20045;-73
2023/12/28 05:33:03;;;;;;;8.98;2.10;;;;;;;;;;5004714;28;20177;-73
2023/12/28 05:35:28;;;;;;;9.32;2.38;;;;;;;;;;5004776;28;20053;-73
2023/12/28 05:37:54;;;;;;;5.15;1.52;;;;;;;;;;5002249;28;20519;-73
2023/12/28 05:40:19;;;;;;;7.95;1.88;;;;;;;;;;5004473;28;20428;-73
2023/12/28 05:42:45;;;;;;;11.38;2.17;;;;;;;;;;5004075;28;20507;-74
2023/12/28 05:45:10;;;;;;;5.80;1.90;;;;;;;;;;5003996;28;20546;-74
2023/12/28 05:47:36;;;;;;;6.18;1.75;;;;;;;;;;5004654;28;20392;-74
2023/12/28 05:50:02;;;;;;;8.00;1.75;;;;;;;;;;5003821;28;20042;-73
2023/12/28 05:52:28;;;;;;;5.10;1.67;;;;;;;;;;5003312;28;20045;-73
2023/12/28 05:54:56;;;;;;;5.30;1.67;;;;;;;;;;5003726;28;20030;-73
2023/12/28 05:57:21;;;;;;;7.53;1.70;;;;;;;;;;5002388;28;20026;-73
2023/12/28 05:59:47;;;;;;;9.55;1.98;;;;;;;;;;5004196;28;20037;-73
2023/12/28 06:02:12;;;;;;;8.52;2.08;;;;;;;;;;5003828;28;20048;-74
2023/12/28 06:04:38;;;;;;;5.95;1.30;;;;;;;;;;5004012;28;20061;-73
2023/12/28 06:07:04;;;;;;;6.30;1.85;;;;;;;;;;5002543;28;20133;-74
2023/12/28 06:09:29;;;;;;;7.18;1.70;;;;;;;;;;5004379;28;20073;-73
2023/12/28 06:11:55;;;;;;;8.18;2.00;;;;;;;;;;5005937;28;20103;-73
2023/12/28 06:14:20;;;;;;;4.75;1.80;;;;;;;;;;5011446;28;20038;-73
2023/12/28 06:16:45;;;;;;;6.95;1.65;;;;;;;;;;5010358;28;20041;-74
2023/12/28 06:19:12;;;;;;;11.98;1.90;;;;;;;;;;5003849;28;20053;-73
2023/12/28 06:21:38;;;;;;;11.77;2.05;;;;;;;;;;5003496;28;20030;-73
2023/12/28 06:24:03;;;;;;;7.63;1.73;;;;;;;;;;5003002;28;20026;-74
2023/12/28 06:26:29;;;;;;;7.97;1.98;;;;;;;;;;5000987;28;20048;-73
2023/12/28 06:28:54;;;;;;;10.95;1.42;;;;;;;;;;5003005;28;20138;-74
2023/12/28 06:31:19;;;;;;;8.20;1.58;;;;;;;;;;5001143;28;20113;-73
2023/12/28 06:33:45;;;;;;;7.43;1.75;;;;;;;;;;5001991;28;20171;-73
2023/12/28 06:36:12;;;;;;;9.73;1.77;;;;;;;;;;5002773;28;20037;-73
2023/12/28 06:38:37;;;;;;;6.63;1.95;;;;;;;;;;5003220;28;20030;-73
2023/12/28 06:41:10;;;;;;;7.78;2.13;;;;;;;;;;5001764;28;20056;-73
2023/12/28 06:43:35;;;;;;;8.15;1.75;;;;;;;;;;5001229;28;20034;-73
2023/12/28 06:46:00;;;;;;;10.73;1.58;;;;;;;;;;5004037;28;20056;-73
2023/12/28 06:48:26;;;;;;;7.40;1.40;;;;;;;;;;5002923;28;20068;-72
2023/12/28 06:50:51;;;;;;;5.97;1.45;;;;;;;;;;5002274;28;20145;-74
2023/12/28 06:53:17;;;;;;;12.13;1.73;;;;;;;;;;5003099;28;20112;-73
2023/12/28 06:55:43;;;;;;;9.30;1.77;;;;;;;;;;4978606;28;20034;-74
2023/12/28 06:58:08;;;;;;;5.45;1.70;;;;;;;;;;4989884;28;20072;-73
2023/12/28 07:00:34;;;;;;;8.13;1.70;;;;;;;;;;5003358;28;20030;-73
2023/12/28 07:02:59;;;;;;;10.00;2.35;;;;;;;;;;5002541;28;20026;-73
2023/12/28 07:05:25;;;;;;;5.95;1.73;;;;;;;;;;5003595;28;20045;-73
2023/12/28 07:07:50;;;;;;;10.00;1.75;;;;;;;;;;5002480;28;20404;-73
2023/12/28 07:10:16;;;;;;;6.65;1.60;;;;;;;;;;5003716;28;20132;-73
2023/12/28 07:12:41;;;;;;;8.63;2.08;;;;;;;;;;5001824;28;20457;-72
2023/12/28 07:15:09;;;;;;;7.65;1.65;;;;;;;;;;5003136;28;20075;-73
2023/12/28 07:17:35;;;;;;;11.82;1.67;;;;;;;;;;5022346;28;20041;-73
2023/12/28 07:20:00;;;;;;;6.15;1.63;;;;;;;;;;5023314;28;20092;-72
2023/12/28 07:22:25;;;;;;;10.30;1.48;;;;;;;;;;5023336;28;20455;-73
2023/12/28 07:24:51;;;;;;;5.50;1.40;;;;;;;;;;5023962;28;20037;-73
2023/12/28 07:27:16;;;;;;;10.13;1.75;;;;;;;;;;5024337;28;20029;-73
2023/12/28 07:29:42;;;;;;;8.63;1.52;;;;;;;;;;5022791;28;20128;-74
2023/12/28 07:32:09;;;;;;;5.35;1.50;;;;;;;;;;5023943;28;20530;-73
2023/12/28 07:34:35;;;;;;;5.57;1.48;;;;;;;;;;5008619;28;20046;-73
2023/12/28 07:37:00;;;;;;;8.48;1.60;;;;;;;;;;4988225;28;20058;-73
2023/12/28 07:39:25;;;;;;;6.45;1.25;;;;;;;;;;4990920;28;20026;-73
2023/12/28 07:41:51;;;;;;;12.63;2.10;;;;;;;;;;4978880;28;21393;-72
2023/12/28 07:44:17;;;;;;;11.93;2.33;;;;;;;;;;4979168;28;20053;-73
2023/12/28 07:46:42;;;;;;;13.70;2.25;;;;;;;;;;4993134;28;20514;-73
2023/12/28 07:49:07;;;;;;;9.90;1.65;;;;;;;;;;4999550;28;20042;-73
2023/12/28 07:51:33;;;;;;;11.55;1.70;;;;;;;;;;4993079;28;20030;-73
2023/12/28 07:53:58;;;;;;;8.90;1.90;;;;;;;;;;4997196;28;20061;-72
2023/12/28 07:56:23;;;;;;;6.97;1.70;;;;;;;;;;4985967;28;20035;-73
2023/12/28 07:58:49;;;;;;;9.50;1.73;;;;;;;;;;5000018;28;20681;-73
2023/12/28 08:01:14;;;;;;;6.82;1.92;;;;;;;;;;5006702;28;20038;-73
2023/12/28 08:03:40;;;;;;;9.20;2.17;;;;;;;;;;5008599;28;20057;-74
2023/12/28 08:06:05;;;;;;;7.07;1.40;;;;;;;;;;5005616;28;20021;-73
2023/12/28 08:08:31;;;;;;;7.32;1.65;;;;;;;;;;5001406;28;20599;-73
2023/12/28 08:10:57;;;;;;;4.50;1.20;;;;;;;;;;4985476;28;20044;-74
2023/12/28 08:13:22;;;;;;;7.72;1.27;;;;;;;;;;4984028;28;20085;-74
2023/12/28 08:15:47;;;;;;;12.95;1.80;;;;;;;;;;4986013;28;20702;-74
2023/12/28 08:18:13;;;;;;;10.93;1.70;;;;;;;;;;5000958;28;20127;-74
2023/12/28 08:20:38;;;;;;;5.30;1.15;;;;;;;;;;5006648;28;20511;-76
2023/12/28 08:23:04;;;;;;;6.80;1.50;;;;;;;;;;5004672;28;20087;-76
2023/12/28 08:25:29;;;;;;;8.30;1.40;;;;;;;;;;5007661;28;20469;-76
2023/12/28 08:27:55;;;;;;;7.20;1.60;;;;;;;;;;4986396;28;20041;-76
2023/12/28 08:30:21;;;;;;;4.82;1.60;;;;;;;;;;4995815;28;20050;-78
2023/12/28 08:32:47;;;;;;;8.65;1.60;;;;;;;;;;4993238;28;20022;-77
2023/12/28 08:35:12;;;;;;;8.68;1.67;;;;;;;;;;4988318;28;20046;-77
2023/12/28 08:37:37;;;;;;;13.80;2.17;;;;;;;;;;4983615;28;20788;-76
2023/12/28 08:40:03;;;;;;;10.38;2.38;;;;;;;;;;4986317;28;20093;-76
2023/12/28 08:42:29;;;;;;;5.55;1.92;;;;;;;;;;4984642;28;20034;-76
2023/12/28 08:44:54;;;;;;;7.75;1.65;;;;;;;;;;4986789;28;20034;-76
2023/12/28 08:47:20;;;;;;;10.88;1.90;;;;;;;;;;4986023;28;20882;-76
2023/12/28 08:49:45;;;;;;;8.35;1.98;;;;;;;;;;4986014;28;20038;-78
2023/12/28 08:52:11;;;;;;;13.23;2.10;;;;;;;;;;4990914;28;20654;-77
2023/12/28 08:54:36;;;;;;;9.82;2.20;;;;;;;;;;4995218;28;20416;-76
2023/12/28 08:57:02;;;;;;;5.47;1.77;;;;;;;;;;4994504;28;20060;-75
2023/12/28 08:59:27;;;;;;;10.93;2.03;;;;;;;;;;4992093;28;20061;-76
2023/12/28 09:01:54;;;;;;;7.32;1.88;;;;;;;;;;4974095;28;20675;-75
2023/12/28 09:04:20;;;;;;;15.20;1.90;;;;;;;;;;4987433;28;20675;-75
2023/12/28 09:06:45;;;;;;;10.98;2.03;;;;;;;;;;4969492;28;20578;-75
2023/12/28 09:09:10;;;;;;;9.65;1.80;;;;;;;;;;4966086;28;20415;-75
2023/12/28 09:11:36;;;;;;;8.60;1.73;;;;;;;;;;4977316;28;20057;-75
2023/12/28 09:14:01;;;;;;;10.32;1.90;;;;;;;;;;4980731;28;20548;-75
2023/12/28 09:16:28;;;;;;;12.57;2.28;;;;;;;;;;4981611;28;20044;-75
2023/12/28 09:18:54;;;;;;;5.88;1.75;;;;;;;;;;4972899;28;20031;-77
2023/12/28 09:21:20;;;;;;;7.75;1.83;;;;;;;;;;4981294;28;20621;-76
2023/12/28 09:23:46;;;;;;;6.90;2.05;;;;;;;;;;4978103;28;20030;-77
2023/12/28 09:26:11;;;;;;;11.55;1.88;;;;;;;;;;4980940;28;20401;-77
2023/12/28 09:28:37;;;;;;;11.85;1.60;;;;;;;;;;4983253;28;20038;-77
2023/12/28 09:31:03;;;;;;;4.55;1.30;;;;;;;;;;4983313;28;20065;-77
2023/12/28 09:33:28;;;;;;;12.13;1.95;;;;;;;;;;5002462;28;20038;-77
2023/12/28 09:35:53;;;;;;;8.48;1.80;;;;;;;;;;4993076;28;20029;-75
2023/12/28 09:38:19;;;;;;;11.63;1.83;;;;;;;;;;4980476;28;20042;-78
2023/12/28 09:40:45;;;;;;;4.10;1.60;;;;;;;;;;4981054;28;20643;-78
2023/12/28 09:43:37;;;;;;;10.38;1.85;;;;;;;;;;4981908;28;20038;-76
2023/12/28 09:46:07;;;;;;;10.30;1.42;;;;;;;;;;4982021;28;20125;-77
2023/12/28 09:48:33;;;;;;;8.98;2.03;;;;;;;;;;5001631;28;20061;-76
2023/12/28 09:50:58;;;;;;;7.13;1.83;;;;;;;;;;5014821;28;20545;-75
2023/12/28 09:53:25;;;;;;;9.68;1.75;;;;;;;;;;4985184;28;20045;-75
2023/12/28 09:55:54;;;;;;;11.07;1.90;;;;;;;;;;4991483;28;20035;-76
2023/12/28 09:58:22;;;;;;;6.97;1.52;;;;;;;;;;4981929;28;20120;-76
2023/12/28 10:00:50;;;;;;;12.70;2.80;;;;;;;;;;4989103;28;20041;-76
2023/12/28 10:03:17;;;;;;;13.65;1.80;;;;;;;;;;4992495;28;20049;-76
2023/12/28 10:05:43;;;;;;;6.38;1.70;;;;;;;;;;4991149;28;20028;-76
2023/12/28 10:08:12;;;;;;;10.90;1.70;;;;;;;;;;4996801;28;20495;-76
2023/12/28 10:10:37;;;;;;;6.65;1.80;;;;;;;;;;4996237;28;20121;-76
2023/12/28 10:13:03;;;;;;;10.32;2.05;;;;;;;;;;4998843;28;20217;-76
2023/12/28 10:15:31;;;;;;;6.30;1.42;;;;;;;;;;5006407;28;20040;-76
2023/12/28 10:17:56;;;;;;;6.57;2.22;;;;;;;;;;5018950;28;20022;-76
2023/12/28 10:20:21;;;;;;;6.63;1.40;;;;;;;;;;5007414;28;20053;-76
2023/12/28 10:22:47;;;;;;;12.00;2.00;;;;;;;;;;5004545;28;20041;-76
2023/12/28 10:25:13;;;;;;;9.57;1.75;;;;;;;;;;5002620;28;20034;-76
2023/12/28 10:27:42;;;;;;;8.80;1.95;;;;;;;;;;5001975;28;20034;-76
2023/12/28 10:30:09;;;;;;;7.18;1.42;;;;;;;;;;4990509;28;20054;-76
2023/12/28 10:32:34;;;;;;;7.38;1.50;;;;;;;;;;5001161;28;20042;-75
2023/12/28 10:34:59;;;;;;;5.40;1.58;;;;;;;;;;4986653;28;20031;-76
2023/12/28 10:37:26;;;;;;;11.30;1.98;;;;;;;;;;4981280;28;20026;-76
2023/12/28 10:39:55;;;;;;;9.30;1.83;;;;;;;;;;4981709;28;20578;-76
2023/12/28 10:42:32;;;;;;;8.77;1.58;;;;;;;;;;4979056;28;20041;-76
2023/12/28 10:45:05;;;;;;;13.93;1.98;;;;;;;;;;4980299;28;20033;-76
2023/12/28 10:47:38;;;;;;;8.27;1.85;;;;;;;;;;4989220;28;20050;-76
2023/12/28 10:50:06;;;;;;;10.38;1.92;;;;;;;;;;4986747;28;20042;-76
2023/12/28 10:52:34;;;;;;;7.88;1.77;;;;;;;;;;4987085;28;20062;-76
2023/12/28 10:55:08;;;;;;;10.25;1.73;;;;;;;;;;4989730;28;20041;-79
2023/12/28 10:57:40;;;;;;;12.18;1.48;;;;;;;;;;4991477;28;20058;-76
2023/12/28 11:00:22;;;;;;;9.38;1.85;;;;;;;;;;4990606;28;20053;-75
2023/12/28 11:02:52;;;;;;;14.77;1.70;;;;;;;;;;5010610;28;20052;-75
2023/12/28 11:05:21;;;;;;;15.82;2.38;;;;;;;;;;4992412;28;20125;-74
2023/12/28 11:07:47;;;;;;;11.95;2.00;;;;;;;;;;5000310;28;20038;-75
2023/12/28 11:10:13;;;;;;;10.25;1.83;;;;;;;;;;4999574;28;20046;-76
2023/12/28 11:12:39;;;;;;;6.40;1.85;;;;;;;;;;4999894;28;20119;-76
2023/12/28 11:15:06;;;;;;;17.08;2.60;;;;;;;;;;5000471;28;20065;-76
2023/12/28 11:17:33;;;;;;;11.23;1.70;;;;;;;;;;4998821;28;20112;-76
2023/12/28 11:20:00;;;;;;;7.78;1.83;;;;;;;;;;5000894;28;20076;-76
2023/12/28 11:22:25;;;;;;;8.77;1.35;;;;;;;;;;5000672;28;20034;-76
2023/12/28 11:24:54;;;;;;;11.80;1.63;;;;;;;;;;5001443;28;20041;-76
2023/12/28 11:27:20;;;;;;;11.73;1.83;;;;;;;;;;5000023;28;20017;-76
2023/12/28 11:29:48;;;;;;;6.38;1.63;;;;;;;;;;5004800;28;20061;-76
2023/12/28 11:32:14;;;;;;;9.32;1.35;;;;;;;;;;5009739;28;20138;-76
2023/12/28 11:34:40;;;;;;;8.90;1.48;;;;;;;;;;5007613;28;20058;-76
2023/12/28 11:37:14;;;;;;;6.20;1.58;;;;;;;;;;4997521;28;20063;-75
2023/12/28 11:39:44;;;;;;;16.45;1.83;;;;;;;;;;4997032;28;20033;-76
2023/12/28 11:42:10;;;;;;;1.55;0.93;;;;;;;;;;5000244;28;20495;-76
2023/12/28 11:44:41;;;;;;;13.88;2.30;;;;;;;;;;4984273;28;20067;-76
2023/12/28 11:47:16;;;;;;;13.57;1.83;;;;;;;;;;4997888;28;20049;-76
2023/12/28 11:49:45;;;;;;;7.10;1.45;;;;;;;;;;4999120;28;20119;-76
2023/12/28 11:52:21;;;;;;;9.68;1.83;;;;;;;;;;4979726;28;20038;-76
2023/12/28 11:54:50;;;;;;;8.70;1.60;;;;;;;;;;4978327;28;20567;-76
2023/12/28 11:57:16;;;;;;;15.98;1.95;;;;;;;;;;4982114;28;20033;-76
2023/12/28 11:59:41;;;;;;;8.02;1.58;;;;;;;;;;4998879;28;20036;-76
2023/12/28 12:02:07;;;;;;;6.55;1.23;;;;;;;;;;4997887;28;20492;-76
2023/12/28 12:04:34;;;;;;;9.82;1.70;;;;;;;;;;4998635;28;20144;-76
2023/12/28 12:07:06;;;;;;;14.82;2.22;;;;;;;;;;5000492;28;20046;-76
2023/12/28 12:09:34;;;;;;;6.25;1.38;;;;;;;;;;4999144;28;20782;-76
2023/12/28 12:12:03;;;;;;;6.53;1.38;;;;;;;;;;5001310;28;20136;-76
2023/12/28 12:14:29;;;;;;;8.40;1.75;;;;;;;;;;4995937;28;20053;-77
2023/12/28 12:16:56;;;;;;;9.73;1.75;;;;;;;;;;5001046;28;20045;-76
2023/12/28 12:19:23;;;;;;;8.63;1.45;;;;;;;;;;5000196;28;20133;-76
2023/12/28 12:21:49;;;;;;;6.22;1.25;;;;;;;;;;4997987;28;20057;-76
2023/12/28 12:24:17;;;;;;;7.65;1.77;;;;;;;;;;4999871;28;20061;-77
2023/12/28 12:26:43;;;;;;;11.93;1.77;;;;;;;;;;5000144;28;20038;-77
2023/12/28 12:29:08;;;;;;;4.32;1.20;;;;;;;;;;4997828;28;20049;-76
2023/12/28 12:31:34;;;;;;;14.00;1.60;;;;;;;;;;4996844;28;20443;-76
2023/12/28 12:33:59;;;;;;;11.80;1.45;;;;;;;;;;4999269;28;20556;-76
2023/12/28 12:36:25;;;;;;;3.90;1.30;;;;;;;;;;4989409;28;20066;-75
2023/12/28 12:38:50;;;;;;;7.18;1.52;;;;;;;;;;4983810;28;20026;-75
2023/12/28 12:41:16;;;;;;;12.18;1.70;;;;;;;;;;4984112;28;20428;-75
2023/12/28 12:43:41;;;;;;;7.70;1.70;;;;;;;;;;4984051;28;20073;-75
2023/12/28 12:46:07;;;;;;;8.10;1.30;;;;;;;;;;4994579;28;20046;-75
2023/12/28 12:48:35;;;;;;;7.20;1.38;;;;;;;;;;4986838;28;20038;-75
2023/12/28 12:51:04;;;;;;;15.88;2.28;;;;;;;;;;5015755;28;20018;-75
2023/12/28 12:53:36;;;;;;;8.23;1.55;;;;;;;;;;5018329;28;20038;-75
2023/12/28 12:56:05;;;;;;;5.00;1.45;;;;;;;;;;5006207;28;20480;-75
2023/12/28 12:58:31;;;;;;;8.45;2.03;;;;;;;;;;5003019;28;20108;-75
2023/12/28 13:00:56;;;;;;;11.35;2.30;;;;;;;;;;5003953;28;20573;-75
2023/12/28 13:03:22;;;;;;;4.97;1.30;;;;;;;;;;5003077;28;20403;-75
2023/12/28 13:05:48;;;;;;;8.32;2.40;;;;;;;;;;5003057;28;20022;-75
2023/12/28 13:08:14;;;;;;;11.05;1.77;;;;;;;;;;5000309;28;20045;-74
2023/12/28 13:10:39;;;;;;;11.25;1.52;;;;;;;;;;5000803;28;20128;-75
2023/12/28 13:13:08;;;;;;;3.85;1.10;;;;;;;;;;5002764;28;20049;-75
2023/12/28 13:15:34;;;;;;;8.63;1.65;;;;;;;;;;5002137;28;20029;-73
2023/12/28 13:17:59;;;;;;;8.38;2.00;;;;;;;;;;5002758;28;20911;-74
2023/12/28 13:20:25;;;;;;;6.97;1.50;;;;;;;;;;5000375;28;20124;-74
2023/12/28 13:22:50;;;;;;;9.02;2.05;;;;;;;;;;5002216;28;20033;-74
2023/12/28 13:25:16;;;;;;;11.77;1.95;;;;;;;;;;5000833;28;20041;-74
2023/12/28 13:27:42;;;;;;;4.30;1.10;;;;;;;;;;5001786;28;20034;-74
2023/12/28 13:30:08;;;;;;;9.43;1.48;;;;;;;;;;5000164;28;20475;-74
2023/12/28 13:32:47;;;;;;;7.13;1.80;;;;;;;;;;5019248;28;20041;-74
2023/12/28 13:35:13;;;;;;;10.55;1.50;;;;;;;;;;5020867;28;20146;-74
2023/12/28 13:37:38;;;;;;;10.95;1.63;;;;;;;;;;5021764;28;20692;-75
2023/12/28 13:40:05;;;;;;;8.50;2.05;;;;;;;;;;5021479;28;20115;-75
2023/12/28 13:42:30;;;;;;;14.05;1.58;;;;;;;;;;5022079;28;20414;-75
2023/12/28 13:44:56;;;;;;;6.07;1.38;;;;;;;;;;5021611;28;20024;-75
2023/12/28 13:47:21;;;;;;;8.75;1.30;;;;;;;;;;5021463;28;20688;-75
2023/12/28 13:49:47;;;;;;;7.97;1.35;;;;;;;;;;5022323;28;20045;-75
2023/12/28 13:52:12;;;;;;;7.93;1.92;;;;;;;;;;5019665;28;20048;-75
2023/12/28 13:54:38;;;;;;;10.88;1.88;;;;;;;;;;5019118;28;20108;-75
2023/12/28 13:57:04;;;;;;;5.28;1.35;;;;;;;;;;5014849;28;20392;-75
2023/12/28 13:59:29;;;;;;;8.90;1.23;;;;;;;;;;5021200;28;20033;-75
2023/12/28 14:01:55;;;;;;;11.20;1.85;;;;;;;;;;5021669;28;20029;-75
2023/12/28 14:04:20;;;;;;;6.63;1.40;;;;;;;;;;5001356;28;20654;-75
2023/12/28 14:06:45;;;;;;;4.60;1.40;;;;;;;;;;4984895;28;20484;-75
2023/12/28 14:09:12;;;;;;;8.15;1.73;;;;;;;;;;5006542;28;20022;-75
2023/12/28 14:11:37;;;;;;;7.15;1.60;;;;;;;;;;5004315;28;20103;-75
2023/12/28 14:14:03;;;;;;;14.45;2.00;;;;;;;;;;5004051;28;20156;-75
2023/12/28 14:16:28;;;;;;;7.82;1.30;;;;;;;;;;4989273;28;20046;-75
2023/12/28 14:18:53;;;;;;;5.55;1.60;;;;;;;;;;4981565;28;20041;-75
2023/12/28 14:21:19;;;;;;;9.82;1.80;;;;;;;;;;4979869;28;20022;-75
2023/12/28 14:23:45;;;;;;;8.05;1.30;;;;;;;;;;4981931;28;20052;-75
2023/12/28 14:26:15;;;;;;;7.38;1.20;;;;;;;;;;4981162;28;20054;-75
2023/12/28 14:28:44;;;;;;;7.60;1.58;;;;;;;;;;4981504;28;20042;-75
2023/12/28 14:31:11;;;;;;;7.68;1.50;;;;;;;;;;4980836;28;20050;-75
2023/12/28 14:33:38;;;;;;;9.05;1.23;;;;;;;;;;4981640;28;20129;-75
2023/12/28 14:36:14;;;;;;;13.02;1.88;;;;;;;;;;4982041;28;20573;-75